Time;durP1;ratioP1;P1;durP2;ratioP2;P2;SDS_P1;SDS_P2;PMS_P1;PMS_P2;Temp;Humidity;BMP_temperature;BMP_pressure;BME280_temperature;BME280_humidity;BME280_pressure;Samples;Min_cycle;Max_cycle;Signal;HPM_P1;HPM_P2
2023/04/09 00:02:19;;;;;;;17.80;16.50;;;10.80;28.30;;;;;;5023538;28;20263;-60
2023/04/09 00:04:44;;;;;;;16.97;15.87;;;10.70;28.50;;;;;;5038933;28;20211;-58
2023/04/09 00:07:10;;;;;;;17.70;16.40;;;10.70;28.40;;;;;;5022937;28;20672;-59
2023/04/09 00:09:36;;;;;;;18.13;16.83;;;10.90;28.70;;;;;;5038189;28;20580;-60
2023/04/09 00:12:02;;;;;;;18.30;17.20;;;11.00;28.50;;;;;;5019694;28;20176;-60
2023/04/09 00:14:27;;;;;;;16.03;14.97;;;11.00;28.10;;;;;;5020617;28;20189;-60
2023/04/09 00:16:53;;;;;;;16.77;15.77;;;11.10;28.30;;;;;;5019166;28;20419;-61
2023/04/09 00:19:19;;;;;;;17.60;16.50;;;11.20;27.90;;;;;;5021776;28;20177;-59
2023/04/09 00:21:45;;;;;;;17.47;16.33;;;11.30;27.50;;;;;;5036173;28;20173;-60
2023/04/09 00:24:11;;;;;;;16.73;15.63;;;11.40;27.40;;;;;;5018407;28;20439;-60
2023/04/09 00:26:36;;;;;;;16.77;15.77;;;11.50;27.30;;;;;;5020692;28;20420;-60
2023/04/09 00:29:02;;;;;;;16.90;15.70;;;11.50;27.30;;;;;;5019851;28;20235;-60
2023/04/09 00:31:27;;;;;;;16.10;15.10;;;11.50;27.30;;;;;;5021117;28;20177;-60
2023/04/09 00:33:53;;;;;;;17.00;16.00;;;11.50;27.30;;;;;;5019707;28;20196;-60
2023/04/09 00:36:19;;;;;;;16.80;15.70;;;11.40;27.30;;;;;;5021117;28;20263;-59
2023/04/09 00:38:46;;;;;;;15.70;14.77;;;11.40;27.20;;;;;;5020708;28;20180;-57
2023/04/09 00:41:11;;;;;;;16.30;15.20;;;11.40;27.00;;;;;;5019182;28;20212;-61
2023/04/09 00:43:37;;;;;;;15.67;14.67;;;11.40;27.00;;;;;;5010826;28;20411;-61
2023/04/09 00:46:03;;;;;;;16.83;15.83;;;11.40;26.90;;;;;;5019141;28;20183;-60
2023/04/09 00:48:29;;;;;;;16.50;15.40;;;11.40;27.00;;;;;;5019575;28;20196;-61
2023/04/09 00:50:55;;;;;;;17.60;16.47;;;11.30;26.80;;;;;;5019917;28;20550;-60
2023/04/09 00:53:21;;;;;;;18.00;16.80;;;11.30;27.10;;;;;;5020414;28;20422;-61
2023/04/09 00:55:46;;;;;;;17.67;16.60;;;11.30;27.10;;;;;;5019891;28;20234;-58
2023/04/09 00:58:13;;;;;;;17.73;16.53;;;11.30;27.10;;;;;;5018502;28;21013;-59
2023/04/09 01:00:39;;;;;;;16.70;15.60;;;11.30;27.10;;;;;;5018151;28;20539;-58
2023/04/09 01:03:06;;;;;;;18.27;17.07;;;11.30;27.00;;;;;;5009724;28;20494;-59
2023/04/09 01:05:46;;;;;;;17.67;16.47;;;11.30;27.20;;;;;;5018607;28;20184;-59
2023/04/09 01:08:26;;;;;;;18.03;16.93;;;11.30;27.40;;;;;;5019179;28;20423;-60
2023/04/09 01:11:06;;;;;;;17.63;16.53;;;11.30;27.40;;;;;;5029562;28;20423;-59
2023/04/09 01:13:48;;;;;;;19.20;18.00;;;11.30;27.30;;;;;;5030699;28;20430;-60
2023/04/09 01:16:15;;;;;;;19.20;18.00;;;11.40;27.30;;;;;;5016873;28;20423;-60
2023/04/09 01:18:49;;;;;;;17.70;16.60;;;11.40;27.30;;;;;;5035460;28;20514;-59
2023/04/09 01:21:19;;;;;;;17.60;16.50;;;11.40;27.10;;;;;;5030517;28;20566;-59
2023/04/09 01:24:01;;;;;;;17.57;16.40;;;11.40;27.40;;;;;;5028462;28;20404;-60
2023/04/09 01:27:03;;;;;;;18.90;17.70;;;11.40;27.40;;;;;;5031257;28;20419;-60
2023/04/09 01:29:50;;;;;;;17.87;16.67;;;11.40;27.30;;;;;;5017784;28;20418;-60
2023/04/09 01:32:18;;;;;;;18.30;17.20;;;11.40;27.10;;;;;;5018104;28;20411;-58
2023/04/09 01:34:46;;;;;;;18.80;17.60;;;11.40;27.30;;;;;;5017617;28;20407;-59
2023/04/09 01:37:13;;;;;;;18.37;17.10;;;11.40;27.40;;;;;;5018841;28;20419;-59
2023/04/09 01:39:40;;;;;;;18.93;17.70;;;11.40;27.30;;;;;;5016775;28;20985;-57
2023/04/09 01:42:09;;;;;;;17.77;16.70;;;11.50;27.50;;;;;;5018333;28;20415;-58
2023/04/09 01:44:38;;;;;;;18.53;17.37;;;11.50;27.40;;;;;;5016704;28;20911;-60
2023/04/09 01:47:05;;;;;;;19.03;17.83;;;11.40;27.50;;;;;;5017125;28;20455;-59
2023/04/09 01:49:32;;;;;;;19.20;18.00;;;11.40;27.50;;;;;;5015421;28;20447;-60
2023/04/09 01:51:58;;;;;;;18.60;17.40;;;11.40;27.50;;;;;;5017400;28;20419;-59
2023/04/09 01:54:24;;;;;;;19.07;17.70;;;11.30;27.70;;;;;;5016936;28;20469;-60
2023/04/09 01:56:49;;;;;;;18.23;17.13;;;11.30;27.90;;;;;;5015964;28;20509;-59
2023/04/09 01:59:15;;;;;;;18.00;16.90;;;11.30;27.90;;;;;;5018500;28;20603;-60
2023/04/09 02:01:51;;;;;;;18.43;17.23;;;11.20;28.00;;;;;;5018655;28;20254;-59
2023/04/09 02:04:23;;;;;;;18.00;16.90;;;11.20;28.10;;;;;;5016964;28;20267;-60
2023/04/09 02:07:04;;;;;;;18.10;16.97;;;11.20;28.40;;;;;;5016088;28;20485;-60
2023/04/09 02:09:32;;;;;;;19.10;17.83;;;11.20;28.30;;;;;;5015214;28;20463;-60
2023/04/09 02:12:02;;;;;;;18.30;17.20;;;11.30;28.30;;;;;;5016397;28;20830;-59
2023/04/09 02:14:31;;;;;;;19.10;17.90;;;11.30;28.10;;;;;;5017126;28;20412;-59
2023/04/09 02:16:58;;;;;;;20.60;19.30;;;11.20;28.30;;;;;;5016663;28;20416;-60
2023/04/09 02:19:24;;;;;;;18.10;16.83;;;11.20;28.30;;;;;;5015561;28;20427;-60
2023/04/09 02:21:49;;;;;;;18.10;17.00;;;11.30;28.20;;;;;;5030918;28;20427;-60
2023/04/09 02:24:15;;;;;;;18.13;17.03;;;11.30;28.20;;;;;;5015405;28;20186;-59
2023/04/09 02:26:40;;;;;;;19.23;17.93;;;11.30;28.30;;;;;;5032337;28;20226;-60
2023/04/09 02:29:06;;;;;;;18.60;17.47;;;11.30;28.30;;;;;;5015793;28;20226;-59
2023/04/09 02:31:32;;;;;;;19.13;17.93;;;11.30;28.30;;;;;;5017052;28;20854;-58
2023/04/09 02:33:57;;;;;;;19.33;18.10;;;11.30;28.40;;;;;;5014988;28;20584;-59
2023/04/09 02:36:23;;;;;;;18.23;17.13;;;11.20;28.30;;;;;;5015897;28;20180;-59
2023/04/09 02:38:48;;;;;;;19.30;18.10;;;11.30;28.40;;;;;;5014818;28;20641;-60
2023/04/09 02:41:14;;;;;;;19.23;18.10;;;11.30;28.30;;;;;;5015803;28;20299;-60
2023/04/09 02:43:40;;;;;;;18.57;17.40;;;11.30;28.40;;;;;;5014485;28;20618;-60
2023/04/09 02:46:06;;;;;;;19.20;17.90;;;11.30;28.20;;;;;;5015626;28;20223;-60
2023/04/09 02:48:31;;;;;;;18.70;17.60;;;11.30;28.20;;;;;;5015663;28;20192;-60
2023/04/09 02:50:57;;;;;;;19.77;18.57;;;11.20;28.30;;;;;;5015236;28;20938;-58
2023/04/09 02:53:24;;;;;;;20.57;19.20;;;11.20;28.50;;;;;;5015909;28;20184;-60
2023/04/09 02:55:49;;;;;;;18.90;17.80;;;11.20;28.70;;;;;;5030745;28;20429;-60
2023/04/09 02:58:15;;;;;;;20.50;19.10;;;11.10;28.90;;;;;;5017460;28;20419;-59
2023/04/09 03:00:40;;;;;;;20.73;19.37;;;11.10;28.90;;;;;;5033121;28;20582;-59
2023/04/09 03:03:06;;;;;;;19.77;18.57;;;11.00;28.90;;;;;;5014670;28;20187;-60
2023/04/09 03:05:32;;;;;;;18.80;17.60;;;11.10;28.90;;;;;;5014025;28;21270;-60
2023/04/09 03:07:57;;;;;;;20.77;19.47;;;11.00;29.00;;;;;;5017184;28;20176;-59
2023/04/09 03:10:23;;;;;;;20.47;19.27;;;10.90;29.10;;;;;;5017132;28;20184;-60
2023/04/09 03:12:49;;;;;;;20.00;18.80;;;10.90;29.30;;;;;;5019251;28;20193;-59
2023/04/09 03:15:14;;;;;;;21.37;20.03;;;10.90;29.30;;;;;;5018259;28;20716;-45
2023/04/09 03:17:40;;;;;;;20.30;19.00;;;10.90;29.40;;;;;;5017563;28;20559;-44
2023/04/09 03:20:08;;;;;;;19.93;18.73;;;11.00;29.60;;;;;;5020093;28;20208;-50
2023/04/09 03:22:38;;;;;;;19.60;18.40;;;10.90;29.40;;;;;;5020011;28;20377;-50
2023/04/09 03:25:04;;;;;;;19.43;18.30;;;11.00;29.40;;;;;;5019114;28;20416;-49
2023/04/09 03:27:31;;;;;;;19.37;18.17;;;11.00;29.40;;;;;;5021049;28;20775;-47
2023/04/09 03:29:57;;;;;;;19.40;18.00;;;11.10;29.30;;;;;;5018496;28;20426;-50
2023/04/09 03:32:23;;;;;;;21.57;20.20;;;11.20;29.10;;;;;;5021226;28;20818;-47
2023/04/09 03:34:49;;;;;;;19.60;18.30;;;11.20;29.10;;;;;;5037362;28;20432;-49
2023/04/09 03:37:15;;;;;;;21.47;20.00;;;11.20;28.90;;;;;;5021131;28;20533;-47
2023/04/09 03:39:40;;;;;;;19.97;18.77;;;11.30;28.90;;;;;;5038190;28;20176;-50
2023/04/09 03:42:06;;;;;;;20.10;18.90;;;11.30;28.40;;;;;;5022066;28;20469;-46
2023/04/09 03:44:32;;;;;;;19.03;17.87;;;11.20;29.20;;;;;;5023991;28;20204;-47
2023/04/09 03:46:57;;;;;;;20.47;19.07;;;11.30;29.00;;;;;;5023620;28;20788;-48
2023/04/09 03:49:23;;;;;;;19.70;18.50;;;11.20;29.00;;;;;;5026863;28;20193;-47
2023/04/09 03:51:50;;;;;;;19.90;18.60;;;11.30;29.20;;;;;;5024446;28;20195;-45
2023/04/09 03:54:16;;;;;;;19.63;18.33;;;11.40;28.80;;;;;;5028752;28;20238;-51
2023/04/09 03:56:41;;;;;;;20.20;18.90;;;11.50;28.40;;;;;;5026807;28;20409;-45
2023/04/09 03:59:07;;;;;;;20.87;19.37;;;11.50;28.20;;;;;;5028490;28;20719;-59
2023/04/09 04:01:33;;;;;;;19.03;17.73;;;11.10;29.00;;;;;;5021992;28;20572;-60
2023/04/09 04:03:59;;;;;;;19.60;18.40;;;11.20;29.50;;;;;;5040631;28;20427;-59
2023/04/09 04:06:24;;;;;;;18.87;17.77;;;11.20;29.00;;;;;;5025613;28;20795;-60
2023/04/09 04:08:51;;;;;;;20.03;18.70;;;11.30;28.80;;;;;;5041734;28;20847;-57
2023/04/09 04:11:17;;;;;;;19.67;18.47;;;11.40;28.60;;;;;;5027670;28;20184;-57
2023/04/09 04:13:42;;;;;;;19.03;17.83;;;11.40;28.50;;;;;;5028629;28;20938;-59
2023/04/09 04:16:08;;;;;;;17.03;16.03;;;11.50;28.50;;;;;;5028975;28;20533;-59
2023/04/09 04:18:35;;;;;;;18.90;17.70;;;11.50;28.40;;;;;;5025799;28;20185;-59
2023/04/09 04:21:00;;;;;;;19.20;18.00;;;11.40;28.50;;;;;;5023957;28;20468;-60
2023/04/09 04:23:26;;;;;;;18.37;17.27;;;11.40;28.30;;;;;;5025179;28;20475;-47
2023/04/09 04:25:56;;;;;;;19.20;18.00;;;11.40;28.30;;;;;;5026958;28;20177;-44
2023/04/09 04:28:22;;;;;;;20.10;18.90;;;11.40;28.40;;;;;;5027503;28;20487;-46
2023/04/09 04:30:48;;;;;;;18.27;17.10;;;11.40;28.20;;;;;;5026790;28;20478;-47
2023/04/09 04:33:14;;;;;;;19.03;17.83;;;11.30;28.30;;;;;;5025507;28;20177;-44
2023/04/09 04:35:39;;;;;;;18.50;17.37;;;11.30;28.20;;;;;;5026743;28;20197;-45
2023/04/09 04:38:05;;;;;;;19.00;17.87;;;11.30;28.20;;;;;;5026559;28;20829;-48
2023/04/09 04:40:31;;;;;;;18.27;17.13;;;11.30;28.40;;;;;;5027344;28;20675;-47
2023/04/09 04:42:56;;;;;;;19.43;18.10;;;11.30;28.50;;;;;;5027510;28;20177;-49
2023/04/09 04:45:22;;;;;;;17.93;16.83;;;11.20;28.50;;;;;;5028136;28;20169;-59
2023/04/09 04:47:47;;;;;;;18.73;17.43;;;11.20;28.40;;;;;;5027966;28;20192;-59
2023/04/09 04:50:13;;;;;;;18.37;17.17;;;11.20;28.50;;;;;;5028015;28;20185;-60
2023/04/09 04:52:39;;;;;;;19.00;17.90;;;11.20;28.60;;;;;;5028145;28;20189;-59
2023/04/09 04:55:05;;;;;;;18.57;17.37;;;11.20;28.50;;;;;;5028096;28;20209;-59
2023/04/09 04:57:31;;;;;;;18.30;17.20;;;11.10;28.90;;;;;;5027567;28;20192;-59
2023/04/09 04:59:56;;;;;;;20.03;18.83;;;11.10;29.50;;;;;;5028571;28;20452;-59
2023/04/09 05:02:22;;;;;;;18.73;17.43;;;11.10;28.90;;;;;;5027072;28;20200;-59
2023/04/09 05:04:48;;;;;;;19.43;18.03;;;11.10;28.90;;;;;;5027166;28;20806;-59
2023/04/09 05:07:13;;;;;;;19.83;18.60;;;11.10;28.90;;;;;;5028602;28;20181;-58
2023/04/09 05:09:41;;;;;;;18.23;17.13;;;11.00;29.40;;;;;;5028667;28;20173;-58
2023/04/09 05:12:07;;;;;;;18.37;17.10;;;11.00;29.50;;;;;;5026847;28;20534;-45
2023/04/09 05:14:33;;;;;;;20.00;18.70;;;11.10;29.30;;;;;;5043510;28;20411;-47
2023/04/09 05:16:59;;;;;;;19.63;18.40;;;11.10;29.10;;;;;;5043256;28;20419;-51
2023/04/09 05:19:25;;;;;;;18.50;17.20;;;11.10;29.00;;;;;;5024792;28;20767;-48
2023/04/09 05:21:50;;;;;;;20.03;18.80;;;11.10;29.50;;;;;;5029621;28;20258;-47
2023/04/09 05:24:16;;;;;;;18.60;17.30;;;11.10;29.50;;;;;;5029838;28;20218;-46
2023/04/09 05:26:42;;;;;;;19.07;17.87;;;11.10;29.60;;;;;;5030996;28;20176;-48
2023/04/09 05:29:07;;;;;;;19.37;18.07;;;11.00;29.30;;;;;;5029632;28;20195;-48
2023/04/09 05:31:34;;;;;;;18.80;17.60;;;11.00;29.60;;;;;;5038077;28;20605;-49
2023/04/09 05:33:59;;;;;;;18.67;17.43;;;11.00;29.40;;;;;;5024884;28;20177;-51
2023/04/09 05:36:26;;;;;;;18.23;17.17;;;10.90;29.60;;;;;;5028195;28;20411;-49
2023/04/09 05:38:51;;;;;;;18.87;17.67;;;10.80;29.80;;;;;;5038587;28;20189;-50
2023/04/09 05:41:17;;;;;;;20.53;19.13;;;10.80;29.80;;;;;;5046434;28;20529;-50
2023/04/09 05:43:43;;;;;;;19.27;18.10;;;10.90;30.00;;;;;;5045399;28;20183;-48
2023/04/09 05:46:08;;;;;;;20.37;19.17;;;10.80;30.00;;;;;;5030297;28;20184;-48
2023/04/09 05:48:35;;;;;;;18.87;17.77;;;10.80;30.00;;;;;;5046836;28;20199;-49
2023/04/09 05:51:01;;;;;;;19.10;17.80;;;10.90;30.00;;;;;;5045928;28;20901;-46
2023/04/09 05:53:27;;;;;;;18.77;17.47;;;10.80;30.00;;;;;;5046666;28;20408;-48
2023/04/09 05:55:52;;;;;;;20.10;18.80;;;10.90;30.50;;;;;;5046116;28;20855;-50
2023/04/09 05:58:18;;;;;;;19.00;17.83;;;10.90;30.60;;;;;;5038564;28;20172;-49
2023/04/09 06:00:44;;;;;;;19.23;17.87;;;10.90;30.50;;;;;;5021913;28;20583;-49
2023/04/09 06:03:10;;;;;;;19.33;18.10;;;10.90;30.50;;;;;;5023232;28;20212;-46
2023/04/09 06:05:35;;;;;;;17.93;16.73;;;10.90;30.40;;;;;;5029922;28;20183;-50
2023/04/09 06:08:01;;;;;;;18.30;17.10;;;10.90;30.10;;;;;;5030500;28;20180;-46
2023/04/09 06:10:27;;;;;;;21.00;19.60;;;10.90;30.50;;;;;;5030020;28;20310;-52
2023/04/09 06:12:52;;;;;;;19.17;17.73;;;10.90;30.60;;;;;;5027561;28;20674;-51
2023/04/09 06:15:18;;;;;;;20.70;19.40;;;10.90;30.20;;;;;;5030051;28;20667;-48
2023/04/09 06:17:44;;;;;;;18.27;17.17;;;10.90;30.00;;;;;;5029030;28;20181;-53
2023/04/09 06:20:10;;;;;;;18.97;17.80;;;10.90;30.00;;;;;;5027205;28;20491;-54
2023/04/09 06:22:36;;;;;;;20.17;18.77;;;10.80;30.10;;;;;;5029110;28;20489;-50
2023/04/09 06:25:02;;;;;;;18.63;17.43;;;10.90;30.10;;;;;;5029604;28;20173;-52
2023/04/09 06:27:28;;;;;;;18.30;17.03;;;11.00;30.00;;;;;;5029394;28;21031;-52
2023/04/09 06:29:53;;;;;;;20.07;18.67;;;10.90;30.00;;;;;;5029896;28;20416;-58
2023/04/09 06:32:19;;;;;;;18.40;17.27;;;11.00;30.00;;;;;;5029628;28;20181;-59
2023/04/09 06:34:45;;;;;;;19.13;17.93;;;11.00;29.90;;;;;;5030350;28;20177;-58
2023/04/09 06:37:10;;;;;;;20.07;18.67;;;11.00;30.20;;;;;;5030198;28;20184;-59
2023/04/09 06:39:36;;;;;;;18.63;17.47;;;11.00;30.20;;;;;;5029538;28;20181;-59
2023/04/09 06:42:02;;;;;;;18.77;17.37;;;11.10;30.50;;;;;;5028554;28;20177;-60
2023/04/09 06:44:29;;;;;;;19.30;17.93;;;11.00;30.00;;;;;;5032911;28;20177;-59
2023/04/09 06:46:55;;;;;;;17.83;16.63;;;11.00;29.40;;;;;;5033705;28;20403;-60
2023/04/09 06:49:20;;;;;;;18.97;17.77;;;11.10;29.10;;;;;;5033668;28;20493;-60
2023/04/09 06:51:46;;;;;;;19.30;18.00;;;10.90;29.50;;;;;;5033391;28;20768;-59
2023/04/09 06:54:11;;;;;;;20.10;18.70;;;11.00;29.50;;;;;;5033459;28;20221;-59
2023/04/09 06:56:37;;;;;;;18.10;16.90;;;11.00;29.20;;;;;;5033139;28;20177;-57
2023/04/09 06:59:02;;;;;;;18.47;17.07;;;10.70;29.60;;;;;;5034197;28;20177;-59
2023/04/09 07:01:28;;;;;;;18.13;16.93;;;10.70;29.90;;;;;;5033455;28;20583;-60
2023/04/09 07:03:54;;;;;;;18.63;17.33;;;10.80;29.90;;;;;;5034117;28;20176;-55
2023/04/09 07:06:20;;;;;;;18.00;16.90;;;10.70;29.40;;;;;;5039558;28;20179;-59
2023/04/09 07:08:46;;;;;;;19.00;17.60;;;10.80;30.00;;;;;;5048286;28;20622;-57
2023/04/09 07:11:11;;;;;;;18.17;16.87;;;10.90;29.50;;;;;;5015873;28;20181;-50
2023/04/09 07:13:37;;;;;;;16.60;15.50;;;10.90;29.20;;;;;;5013483;28;20420;-45
2023/04/09 07:16:03;;;;;;;17.67;16.50;;;11.00;28.60;;;;;;5015200;28;20173;-44
2023/04/09 07:18:29;;;;;;;17.60;16.50;;;11.10;28.20;;;;;;5013868;28;20654;-46
2023/04/09 07:20:55;;;;;;;18.57;17.27;;;11.20;27.90;;;;;;5014923;28;20205;-48
2023/04/09 07:23:21;;;;;;;17.60;16.40;;;11.10;28.00;;;;;;5013153;28;20478;-46
2023/04/09 07:25:47;;;;;;;18.60;17.40;;;11.10;27.90;;;;;;5013710;28;20259;-47
2023/04/09 07:28:12;;;;;;;17.87;16.70;;;10.90;28.10;;;;;;5013769;28;20413;-47
2023/04/09 07:30:40;;;;;;;17.37;16.27;;;10.90;28.20;;;;;;5013741;28;20700;-47
2023/04/09 07:33:05;;;;;;;17.67;16.47;;;11.00;28.20;;;;;;5013046;28;20182;-51
2023/04/09 07:35:31;;;;;;;18.27;16.83;;;11.00;27.70;;;;;;5013439;28;20432;-54
2023/04/09 07:37:57;;;;;;;17.03;15.90;;;10.90;27.60;;;;;;5013663;28;20173;-51
2023/04/09 07:40:23;;;;;;;17.07;15.97;;;10.80;27.80;;;;;;5013374;28;20539;-52
2023/04/09 07:42:49;;;;;;;16.77;15.67;;;10.90;27.50;;;;;;5030267;28;20599;-50
2023/04/09 07:45:16;;;;;;;15.63;14.53;;;10.90;27.90;;;;;;5031561;28;20537;-52
2023/04/09 07:47:41;;;;;;;15.33;14.33;;;11.00;27.80;;;;;;5031737;28;20427;-50
2023/04/09 07:50:08;;;;;;;15.30;14.27;;;10.90;26.60;;;;;;5030598;28;20415;-47
2023/04/09 07:52:33;;;;;;;13.53;12.63;;;11.10;26.60;;;;;;5029813;28;20322;-60
2023/04/09 07:54:59;;;;;;;14.53;13.63;;;11.20;25.00;;;;;;5030816;28;20510;-60
2023/04/09 07:57:25;;;;;;;13.10;12.30;;;11.20;24.40;;;;;;5030998;28;20187;-58
2023/04/09 07:59:52;;;;;;;13.57;12.73;;;11.30;24.10;;;;;;5031965;28;20585;-60
2023/04/09 08:02:18;;;;;;;14.90;13.90;;;11.40;23.90;;;;;;5031296;28;20404;-60
2023/04/09 08:04:43;;;;;;;14.13;13.00;;;11.50;24.20;;;;;;5031774;28;20411;-60
2023/04/09 08:07:10;;;;;;;16.60;15.50;;;11.50;24.90;;;;;;5031849;28;20180;-58
2023/04/09 08:09:35;;;;;;;15.53;14.53;;;11.60;25.00;;;;;;5031931;28;20534;-60
2023/04/09 08:12:01;;;;;;;16.43;15.33;;;11.70;24.80;;;;;;5031350;28;20419;-51
2023/04/09 08:14:27;;;;;;;15.50;14.50;;;11.80;24.40;;;;;;5031831;28;20184;-52
2023/04/09 08:16:52;;;;;;;15.57;14.47;;;11.70;24.40;;;;;;5031714;28;20169;-52
2023/04/09 08:19:19;;;;;;;14.17;13.27;;;11.60;24.60;;;;;;5031934;28;20173;-51
2023/04/09 08:21:47;;;;;;;14.17;13.27;;;11.60;24.80;;;;;;5031059;28;20216;-50
2023/04/09 08:24:13;;;;;;;15.30;14.33;;;11.60;24.40;;;;;;5031638;28;20463;-49
2023/04/09 08:26:40;;;;;;;15.27;14.27;;;11.60;24.30;;;;;;5031632;28;20739;-51
2023/04/09 08:29:06;;;;;;;14.40;13.60;;;11.70;24.20;;;;;;5031674;28;20411;-50
2023/04/09 08:31:32;;;;;;;15.03;14.03;;;11.70;24.00;;;;;;5031114;28;20438;-60
2023/04/09 08:33:58;;;;;;;14.20;13.30;;;11.80;23.80;;;;;;5033084;28;20888;-60
2023/04/09 08:36:25;;;;;;;13.10;12.40;;;11.90;23.70;;;;;;5031509;28;20423;-59
2023/04/09 08:38:51;;;;;;;15.17;14.17;;;11.90;23.30;;;;;;5031474;28;20779;-59
2023/04/09 08:41:19;;;;;;;13.10;12.30;;;11.80;23.00;;;;;;5030705;28;20486;-52
2023/04/09 08:43:47;;;;;;;13.20;12.33;;;11.80;22.90;;;;;;5031463;28;20416;-48
2023/04/09 08:46:16;;;;;;;13.70;12.90;;;11.80;22.80;;;;;;5031251;28;20422;-52
2023/04/09 08:48:44;;;;;;;13.20;12.40;;;12.00;23.10;;;;;;4994170;28;1077663;-51
2023/04/09 08:51:13;;;;;;;12.17;11.47;;;12.10;22.10;;;;;;5031377;28;20214;-49
2023/04/09 08:53:41;;;;;;;13.30;12.50;;;12.10;20.90;;;;;;5032095;28;20432;-52
2023/04/09 08:56:06;;;;;;;14.07;13.17;;;12.20;20.80;;;;;;5032173;28;20446;-59
2023/04/09 08:58:32;;;;;;;12.10;11.40;;;12.20;20.50;;;;;;5031926;28;20936;-59
2023/04/09 09:00:58;;;;;;;12.13;11.40;;;12.30;20.80;;;;;;5031792;28;20312;-59
2023/04/09 09:03:23;;;;;;;13.60;12.80;;;12.20;20.50;;;;;;5031371;28;20834;-60
2023/04/09 09:05:49;;;;;;;12.13;11.43;;;12.20;20.10;;;;;;5032833;28;20204;-60
2023/04/09 09:08:25;;;;;;;12.47;11.53;;;12.30;19.80;;;;;;5031863;28;20211;-60
2023/04/09 09:10:51;;;;;;;12.50;11.73;;;12.40;19.40;;;;;;5031856;28;20191;-59
2023/04/09 09:13:17;;;;;;;12.50;11.67;;;12.30;19.70;;;;;;5031204;28;20419;-60
2023/04/09 09:15:43;;;;;;;12.33;11.57;;;12.40;19.70;;;;;;5031673;28;20522;-48
2023/04/09 09:18:08;;;;;;;11.57;10.77;;;12.50;19.00;;;;;;5031705;28;20181;-47
2023/04/09 09:20:34;;;;;;;11.23;10.50;;;12.80;17.90;;;;;;5033093;28;20459;-49
2023/04/09 09:23:00;;;;;;;12.73;11.93;;;13.00;17.70;;;;;;5030829;28;20181;-48
2023/04/09 09:25:26;;;;;;;12.10;11.43;;;13.30;17.90;;;;;;5032839;28;20177;-52
2023/04/09 09:27:53;;;;;;;13.20;12.10;;;13.50;17.30;;;;;;5031402;28;20423;-46
2023/04/09 09:30:23;;;;;;;12.30;11.60;;;13.50;17.20;;;;;;5031539;28;20222;-49
2023/04/09 09:33:08;;;;;;;13.83;12.93;;;13.60;17.40;;;;;;5030763;28;20415;-51
2023/04/09 09:35:53;;;;;;;12.43;11.70;;;13.60;17.40;;;;;;5031286;28;20469;-48
2023/04/09 09:38:19;;;;;;;12.00;11.20;;;13.90;16.90;;;;;;5031054;28;20431;-49
2023/04/09 09:40:46;;;;;;;12.23;11.47;;;13.80;16.40;;;;;;5031159;28;20554;-51
2023/04/09 09:43:15;;;;;;;12.47;11.67;;;13.80;16.50;;;;;;5030497;28;20407;-51
2023/04/09 09:45:42;;;;;;;11.93;11.20;;;14.00;15.60;;;;;;5031089;28;20427;-51
2023/04/09 09:48:10;;;;;;;11.17;10.37;;;14.10;15.00;;;;;;5030785;28;20447;-47
2023/04/09 09:50:37;;;;;;;10.90;10.23;;;14.20;14.10;;;;;;5030962;28;20424;-51
2023/04/09 09:53:05;;;;;;;9.97;9.30;;;14.20;13.90;;;;;;5030443;28;20415;-50
2023/04/09 09:55:38;;;;;;;11.93;11.23;;;14.00;14.10;;;;;;5031206;28;20767;-48
2023/04/09 09:58:26;;;;;;;12.13;11.33;;;14.00;15.00;;;;;;5031102;28;20501;-50
2023/04/09 10:00:52;;;;;;;12.07;11.37;;;14.10;15.40;;;;;;5030792;28;20463;-49
2023/04/09 10:03:30;;;;;;;12.03;11.33;;;14.20;13.60;;;;;;5030192;28;20510;-60
2023/04/09 10:05:57;;;;;;;9.23;8.73;;;14.10;13.80;;;;;;5030945;28;20477;-61
2023/04/09 10:08:24;;;;;;;8.67;8.20;;;14.00;12.60;;;;;;5030810;28;20431;-49
2023/04/09 10:10:51;;;;;;;8.93;8.50;;;14.00;11.10;;;;;;5030884;28;20781;-48
2023/04/09 10:13:25;;;;;;;10.00;9.40;;;14.00;11.30;;;;;;5029997;28;20822;-51
2023/04/09 10:15:52;;;;;;;10.90;10.30;;;14.20;12.20;;;;;;5030955;28;20422;-51
2023/04/09 10:18:18;;;;;;;10.20;9.60;;;14.00;12.40;;;;;;5029578;28;20427;-48
2023/04/09 10:21:13;;;;;;;10.40;9.80;;;14.00;12.90;;;;;;5046467;28;20971;-48
2023/04/09 10:23:40;;;;;;;9.07;8.57;;;14.10;11.90;;;;;;5042980;28;20522;-49
2023/04/09 10:26:06;;;;;;;10.07;9.47;;;14.20;11.90;;;;;;5031436;28;20437;-49
2023/04/09 10:28:32;;;;;;;9.97;9.37;;;14.30;11.50;;;;;;5039425;28;20436;-49
2023/04/09 10:30:58;;;;;;;9.23;8.73;;;14.40;11.50;;;;;;5034040;28;20445;-52
2023/04/09 10:33:26;;;;;;;8.90;8.40;;;14.20;11.00;;;;;;5022907;28;20427;-53
2023/04/09 10:36:21;;;;;;;8.50;8.10;;;14.10;11.70;;;;;;5026365;28;20263;-47
2023/04/09 10:38:47;;;;;;;9.10;8.70;;;14.20;10.60;;;;;;5011527;28;20506;-47
2023/04/09 10:41:24;;;;;;;7.93;7.43;;;14.20;9.90;;;;;;5013891;28;20464;-46
2023/04/09 10:43:49;;;;;;;7.83;7.43;;;14.10;9.30;;;;;;5014471;28;20528;-48
2023/04/09 10:46:27;;;;;;;8.10;7.70;;;14.20;12.50;;;;;;5015920;28;20996;-47
2023/04/09 10:49:15;;;;;;;7.30;7.00;;;14.10;10.00;;;;;;5037623;28;20197;-46
2023/04/09 10:51:47;;;;;;;8.90;8.40;;;14.00;10.40;;;;;;5040190;28;20428;-45
2023/04/09 10:54:31;;;;;;;9.70;9.20;;;14.10;10.70;;;;;;5040619;28;20427;-48
2023/04/09 10:57:06;;;;;;;8.50;8.00;;;14.00;11.00;;;;;;5025934;28;20411;-59
2023/04/09 10:59:35;;;;;;;8.97;8.47;;;13.70;10.10;;;;;;5021311;28;20445;-59
2023/04/09 11:02:05;;;;;;;8.53;8.10;;;13.70;10.90;;;;;;5016147;28;21029;-60
2023/04/09 11:04:55;;;;;;;7.80;7.40;;;13.60;10.10;;;;;;5034769;28;20420;-60
2023/04/09 11:07:23;;;;;;;8.47;8.00;;;13.70;10.70;;;;;;5014397;28;20438;-60
2023/04/09 11:09:49;;;;;;;9.20;8.70;;;13.60;9.40;;;;;;5018877;28;20534;-60
2023/04/09 11:12:15;;;;;;;8.10;7.70;;;13.60;9.30;;;;;;5023743;28;20416;-60
2023/04/09 11:14:41;;;;;;;8.47;8.00;;;13.60;9.90;;;;;;5046196;28;20419;-49
2023/04/09 11:17:07;;;;;;;8.83;8.23;;;13.50;10.70;;;;;;5044206;28;20255;-52
2023/04/09 11:19:35;;;;;;;8.83;8.33;;;13.40;10.50;;;;;;5050176;28;20676;-52
2023/04/09 11:22:05;;;;;;;8.60;8.17;;;13.30;10.20;;;;;;5040955;28;20209;-47
2023/04/09 11:24:57;;;;;;;10.80;8.57;;;13.20;10.50;;;;;;5012637;28;20445;-52
2023/04/09 11:27:23;;;;;;;9.67;9.10;;;13.20;10.90;;;;;;5009954;28;20516;-48
2023/04/09 11:29:53;;;;;;;10.20;9.50;;;13.20;11.90;;;;;;5013611;28;20853;-50
2023/04/09 11:32:19;;;;;;;9.57;8.97;;;13.20;12.00;;;;;;5019424;28;20174;-50
2023/04/09 11:34:44;;;;;;;10.33;9.73;;;13.20;12.20;;;;;;5013799;28;20828;-60
2023/04/09 11:37:15;;;;;;;10.10;9.50;;;13.30;12.50;;;;;;5013509;28;20189;-60
2023/04/09 11:39:43;;;;;;;9.57;8.80;;;13.40;12.90;;;;;;5013746;28;20177;-60
2023/04/09 11:42:18;;;;;;;9.30;8.80;;;13.40;12.40;;;;;;5020686;28;20432;-59
2023/04/09 11:44:45;;;;;;;9.00;8.50;;;13.40;11.60;;;;;;5013687;28;20463;-51
2023/04/09 11:47:12;;;;;;;9.90;9.30;;;13.50;11.70;;;;;;5016409;28;20423;-46
2023/04/09 11:49:38;;;;;;;9.07;8.57;;;13.40;12.10;;;;;;5019279;28;20471;-49
2023/04/09 11:52:04;;;;;;;9.80;9.20;;;13.40;11.90;;;;;;5012472;28;20444;-49
2023/04/09 11:54:33;;;;;;;11.10;10.50;;;13.40;12.30;;;;;;5013757;28;20506;-45
2023/04/09 11:57:00;;;;;;;9.97;9.47;;;13.40;11.90;;;;;;4996885;28;20428;-48
2023/04/09 11:59:26;;;;;;;10.80;10.10;;;13.40;12.10;;;;;;5013282;28;20924;-45
2023/04/09 12:01:52;;;;;;;9.97;9.23;;;13.40;12.10;;;;;;5012469;28;20506;-60
2023/04/09 12:04:21;;;;;;;10.10;9.50;;;13.40;11.70;;;;;;5017679;28;20866;-60
2023/04/09 12:06:47;;;;;;;8.90;8.40;;;13.50;11.20;;;;;;5033570;28;20227;-60
2023/04/09 12:09:15;;;;;;;16.50;15.30;;;13.70;11.20;;;;;;5024543;28;20427;-60
2023/04/09 12:11:43;;;;;;;9.60;9.10;;;13.70;10.80;;;;;;5032136;28;20451;-60
2023/04/09 12:14:13;;;;;;;10.60;10.00;;;13.70;10.50;;;;;;5032837;28;20455;-60
2023/04/09 12:16:43;;;;;;;9.57;8.97;;;13.80;10.40;;;;;;5029284;28;20770;-60
2023/04/09 12:19:11;;;;;;;10.40;9.80;;;13.90;12.70;;;;;;5028544;28;20518;-60
2023/04/09 12:21:57;;;;;;;10.27;9.67;;;14.00;10.30;;;;;;5039726;28;20517;-61
2023/04/09 12:24:24;;;;;;;10.00;9.40;;;14.20;10.00;;;;;;5032212;28;20924;-61
2023/04/09 12:26:51;;;;;;;10.50;9.90;;;14.30;9.70;;;;;;5040221;28;20427;-60
2023/04/09 12:29:19;;;;;;;9.77;9.20;;;14.40;9.70;;;;;;5035520;28;20428;-61
2023/04/09 12:31:45;;;;;;;10.00;9.50;;;14.40;10.40;;;;;;5030842;28;20834;-59
2023/04/09 12:34:11;;;;;;;10.63;10.03;;;14.50;9.90;;;;;;5041825;28;20466;-47